sensor_id;sensor_type;location;lat;lon;timestamp;pressure;altitude;pressure_sealevel;temperature;humidity
43745;BME280;29359;53.048;8.732;2023-02-12T00:00:50;103732.69;;;7.36;100.00
43745;BME280;29359;53.048;8.732;2023-02-12T00:02:52;103738.84;;;7.37;100.00
43745;BME280;29359;53.048;8.732;2023-02-12T00:04:53;103742.44;;;7.39;100.00
43745;BME280;29359;53.048;8.732;2023-02-12T00:06:55;103741.47;;;7.37;100.00
43745;BME280;29359;53.048;8.732;2023-02-12T00:08:57;103748.41;;;7.35;100.00
43745;BME280;29359;53.048;8.732;2023-02-12T00:10:58;103758.09;;;7.36;100.00
43745;BME280;29359;53.048;8.732;2023-02-12T00:13:00;103755.41;;;7.34;100.00
43745;BME280;29359;53.048;8.732;2023-02-12T00:15:01;103758.88;;;7.33;100.00
43745;BME280;29359;53.048;8.732;2023-02-12T00:17:03;103771.97;;;7.32;100.00
43745;BME280;29359;53.048;8.732;2023-02-12T00:19:04;103762.31;;;7.31;100.00
43745;BME280;29359;53.048;8.732;2023-02-12T00:21:06;103764.88;;;7.29;100.00
43745;BME280;29359;53.048;8.732;2023-02-12T00:23:11;103766.66;;;7.30;100.00
43745;BME280;29359;53.048;8.732;2023-02-12T00:25:12;103770.97;;;7.28;100.00
43745;BME280;29359;53.048;8.732;2023-02-12T00:27:14;103770.09;;;7.28;100.00
43745;BME280;29359;53.048;8.732;2023-02-12T00:29:16;103771.81;;;7.27;100.00
43745;BME280;29359;53.048;8.732;2023-02-12T00:31:20;103770.94;;;7.27;100.00
43745;BME280;29359;53.048;8.732;2023-02-12T00:33:22;103770.88;;;7.25;100.00
43745;BME280;29359;53.048;8.732;2023-02-12T00:35:23;103774.41;;;7.25;100.00
43745;BME280;29359;53.048;8.732;2023-02-12T00:37:25;103775.19;;;7.23;100.00
43745;BME280;29359;53.048;8.732;2023-02-12T00:39:26;103776.19;;;7.27;100.00
43745;BME280;29359;53.048;8.732;2023-02-12T00:41:28;103780.50;;;7.24;100.00
43745;BME280;29359;53.048;8.732;2023-02-12T00:43:30;103783.19;;;7.26;100.00
43745;BME280;29359;53.048;8.732;2023-02-12T00:45:31;103781.41;;;7.25;100.00
43745;BME280;29359;53.048;8.732;2023-02-12T00:47:33;103786.56;;;7.22;100.00
43745;BME280;29359;53.048;8.732;2023-02-12T00:49:34;103787.44;;;7.22;100.00
43745;BME280;29359;53.048;8.732;2023-02-12T00:51:36;103788.34;;;7.23;100.00
43745;BME280;29359;53.048;8.732;2023-02-12T00:53:37;103786.56;;;7.22;100.00
43745;BME280;29359;53.048;8.732;2023-02-12T00:55:39;103784.72;;;7.19;100.00
43745;BME280;29359;53.048;8.732;2023-02-12T00:57:41;103785.56;;;7.18;100.00
43745;BME280;29359;53.048;8.732;2023-02-12T00:59:42;103785.50;;;7.17;100.00
43745;BME280;29359;53.048;8.732;2023-02-12T01:01:44;103785.47;;;7.15;100.00
43745;BME280;29359;53.048;8.732;2023-02-12T01:03:45;103787.16;;;7.13;100.00
43745;BME280;29359;53.048;8.732;2023-02-12T01:05:47;103782.78;;;7.14;100.00
43745;BME280;29359;53.048;8.732;2023-02-12T01:07:49;103787.09;;;7.12;100.00
43745;BME280;29359;53.048;8.732;2023-02-12T01:09:51;103789.69;;;7.10;100.00
43745;BME280;29359;53.048;8.732;2023-02-12T01:11:52;103788.72;;;7.08;100.00
43745;BME280;29359;53.048;8.732;2023-02-12T01:13:54;103786.94;;;7.07;100.00
43745;BME280;29359;53.048;8.732;2023-02-12T01:16:08;103794.00;;;7.08;100.00
43745;BME280;29359;53.048;8.732;2023-02-12T01:18:14;103788.63;;;7.05;100.00
43745;BME280;29359;53.048;8.732;2023-02-12T01:20:18;103793.00;;;7.05;100.00
43745;BME280;29359;53.048;8.732;2023-02-12T01:22:20;103789.53;;;7.06;100.00
43745;BME280;29359;53.048;8.732;2023-02-12T01:24:21;103794.81;;;7.07;100.00
43745;BME280;29359;53.048;8.732;2023-02-12T01:26:24;103792.16;;;7.06;100.00
43745;BME280;29359;53.048;8.732;2023-02-12T01:28:25;103796.50;;;7.05;100.00
43745;BME280;29359;53.048;8.732;2023-02-12T01:30:27;103790.31;;;7.03;100.00
43745;BME280;29359;53.048;8.732;2023-02-12T01:32:28;103792.00;;;7.01;100.00
43745;BME280;29359;53.048;8.732;2023-02-12T01:34:30;103787.59;;;7.00;100.00
43745;BME280;29359;53.048;8.732;2023-02-12T01:36:31;103788.44;;;6.99;100.00
43745;BME280;29359;53.048;8.732;2023-02-12T01:38:33;103788.38;;;6.98;100.00
43745;BME280;29359;53.048;8.732;2023-02-12T01:40:35;103798.00;;;6.97;100.00
43745;BME280;29359;53.048;8.732;2023-02-12T01:42:37;103790.94;;;6.96;100.00
43745;BME280;29359;53.048;8.732;2023-02-12T01:44:45;103794.47;;;6.97;100.00
43745;BME280;29359;53.048;8.732;2023-02-12T01:47:06;103795.25;;;6.94;100.00
43745;BME280;29359;53.048;8.732;2023-02-12T01:49:14;103790.00;;;6.94;100.00
43745;BME280;29359;53.048;8.732;2023-02-12T01:51:18;103790.81;;;6.93;100.00
43745;BME280;29359;53.048;8.732;2023-02-12T01:53:23;103790.00;;;6.94;100.00
43745;BME280;29359;53.048;8.732;2023-02-12T01:55:25;103789.03;;;6.92;100.00
43745;BME280;29359;53.048;8.732;2023-02-12T01:57:29;103794.22;;;6.90;100.00
43745;BME280;29359;53.048;8.732;2023-02-12T01:59:33;103786.31;;;6.89;100.00
43745;BME280;29359;53.048;8.732;2023-02-12T02:01:36;103793.28;;;6.88;100.00
43745;BME280;29359;53.048;8.732;2023-02-12T02:03:38;103792.44;;;6.89;100.00
43745;BME280;29359;53.048;8.732;2023-02-12T02:05:46;103787.25;;;6.91;100.00
43745;BME280;29359;53.048;8.732;2023-02-12T02:07:51;103782.84;;;6.90;100.00
43745;BME280;29359;53.048;8.732;2023-02-12T02:09:54;103781.94;;;6.89;100.00
43745;BME280;29359;53.048;8.732;2023-02-12T02:11:56;103788.09;;;6.90;100.00
43745;BME280;29359;53.048;8.732;2023-02-12T02:14:16;103778.38;;;6.87;100.00
43745;BME280;29359;53.048;8.732;2023-02-12T02:16:35;103781.84;;;6.86;100.00
43745;BME280;29359;53.048;8.732;2023-02-12T02:18:44;103782.72;;;6.87;100.00
43745;BME280;29359;53.048;8.732;2023-02-12T02:25:43;103774.75;;;6.84;100.00
43745;BME280;29359;53.048;8.732;2023-02-12T02:32:55;103773.66;;;6.77;100.00
43745;BME280;29359;53.048;8.732;2023-02-12T02:35:14;103779.69;;;6.75;100.00
43745;BME280;29359;53.048;8.732;2023-02-12T02:37:25;103775.28;;;6.74;100.00
43745;BME280;29359;53.048;8.732;2023-02-12T02:41:51;103773.53;;;6.74;100.00
43745;BME280;29359;53.048;8.732;2023-02-12T02:43:55;103766.50;;;6.73;100.00
43745;BME280;29359;53.048;8.732;2023-02-12T02:46:11;103768.19;;;6.71;100.00
43745;BME280;29359;53.048;8.732;2023-02-12T02:48:20;103772.56;;;6.71;100.00
43745;BME280;29359;53.048;8.732;2023-02-12T02:50:25;103774.28;;;6.70;100.00
43745;BME280;29359;53.048;8.732;2023-02-12T02:52:36;103768.13;;;6.70;100.00
43745;BME280;29359;53.048;8.732;2023-02-12T02:54:47;103769.88;;;6.69;100.00
43745;BME280;29359;53.048;8.732;2023-02-12T02:56:55;103770.75;;;6.70;100.00
43745;BME280;29359;53.048;8.732;2023-02-12T02:59:03;103771.59;;;6.69;100.00
43745;BME280;29359;53.048;8.732;2023-02-12T03:01:29;103764.50;;;6.66;100.00
43745;BME280;29359;53.048;8.732;2023-02-12T03:03:49;103766.25;;;6.66;100.00
43745;BME280;29359;53.048;8.732;2023-02-12T03:05:56;103774.13;;;6.66;100.00
43745;BME280;29359;53.048;8.732;2023-02-12T03:08:11;103777.59;;;6.65;100.00
43745;BME280;29359;53.048;8.732;2023-02-12T03:10:22;103785.53;;;6.66;100.00
43745;BME280;29359;53.048;8.732;2023-02-12T03:12:34;103781.16;;;6.67;100.00
43745;BME280;29359;53.048;8.732;2023-02-12T03:14:39;103784.56;;;6.64;100.00
43745;BME280;29359;53.048;8.732;2023-02-12T03:16:53;103781.06;;;6.64;100.00
43745;BME280;29359;53.048;8.732;2023-02-12T03:19:10;103782.78;;;6.63;100.00
43745;BME280;29359;53.048;8.732;2023-02-12T03:21:16;103780.06;;;6.60;100.00
43745;BME280;29359;53.048;8.732;2023-02-12T03:23:24;103775.69;;;6.60;100.00
43745;BME280;29359;53.048;8.732;2023-02-12T03:27:39;103785.34;;;6.61;100.00
43745;BME280;29359;53.048;8.732;2023-02-12T03:29:43;103780.91;;;6.59;100.00
43745;BME280;29359;53.048;8.732;2023-02-12T03:38:55;103801.09;;;6.61;100.00
43745;BME280;29359;53.048;8.732;2023-02-12T03:41:11;103802.06;;;6.64;100.00
43745;BME280;29359;53.048;8.732;2023-02-12T03:43:23;103797.59;;;6.61;100.00
43745;BME280;29359;53.048;8.732;2023-02-12T03:45:42;103797.69;;;6.64;100.00
43745;BME280;29359;53.048;8.732;2023-02-12T03:47:50;103802.06;;;6.64;100.00
43745;BME280;29359;53.048;8.732;2023-02-12T03:50:02;103795.91;;;6.63;100.00
43745;BME280;29359;53.048;8.732;2023-02-12T03:52:07;103795.91;;;6.63;100.00
43745;BME280;29359;53.048;8.732;2023-02-12T03:54:11;103797.84;;;6.69;100.00
43745;BME280;29359;53.048;8.732;2023-02-12T03:56:26;103805.69;;;6.67;100.00
43745;BME280;29359;53.048;8.732;2023-02-12T03:58:31;103794.34;;;6.68;100.00
43745;BME280;29359;53.048;8.732;2023-02-12T04:00:36;103799.59;;;6.68;100.00
43745;BME280;29359;53.048;8.732;2023-02-12T04:02:39;103801.28;;;6.66;100.00
43745;BME280;29359;53.048;8.732;2023-02-12T04:04:43;103796.91;;;6.67;100.00
43745;BME280;29359;53.048;8.732;2023-02-12T04:06:46;103808.25;;;6.66;100.00
43745;BME280;29359;53.048;8.732;2023-02-12T04:08:49;103805.63;;;6.66;100.00
43745;BME280;29359;53.048;8.732;2023-02-12T04:13:18;103807.63;;;6.73;100.00
43745;BME280;29359;53.048;8.732;2023-02-12T04:18:00;103800.75;;;6.76;100.00
43745;BME280;29359;53.048;8.732;2023-02-12T04:27:34;103808.88;;;6.84;100.00
43745;BME280;29359;53.048;8.732;2023-02-12T04:29:57;103813.31;;;6.85;100.00
43745;BME280;29359;53.048;8.732;2023-02-12T04:32:11;103808.88;;;6.84;100.00
43745;BME280;29359;53.048;8.732;2023-02-12T04:36:33;103815.88;;;6.83;100.00
43745;BME280;29359;53.048;8.732;2023-02-12T04:38:40;103815.94;;;6.85;100.00
43745;BME280;29359;53.048;8.732;2023-02-12T04:40:45;103811.50;;;6.84;100.00
43745;BME280;29359;53.048;8.732;2023-02-12T04:42:50;103815.81;;;6.82;100.00
43745;BME280;29359;53.048;8.732;2023-02-12T04:44:52;103821.06;;;6.82;100.00
43745;BME280;29359;53.048;8.732;2023-02-12T04:46:53;103808.78;;;6.81;100.00
43745;BME280;29359;53.048;8.732;2023-02-12T04:48:57;103815.88;;;6.83;100.00
43745;BME280;29359;53.048;8.732;2023-02-12T04:50:59;103825.47;;;6.83;100.00
43745;BME280;29359;53.048;8.732;2023-02-12T04:53:00;103816.81;;;6.85;100.00
43745;BME280;29359;53.048;8.732;2023-02-12T04:55:02;103822.13;;;6.87;100.00
43745;BME280;29359;53.048;8.732;2023-02-12T04:57:03;103819.56;;;6.88;100.00
43745;BME280;29359;53.048;8.732;2023-02-12T04:59:05;103822.97;;;6.86;100.00
43745;BME280;29359;53.048;8.732;2023-02-12T05:01:08;103808.88;;;6.84;100.00
43745;BME280;29359;53.048;8.732;2023-02-12T05:03:10;103808.88;;;6.84;100.00
43745;BME280;29359;53.048;8.732;2023-02-12T05:05:12;103812.47;;;6.86;100.00
43745;BME280;29359;53.048;8.732;2023-02-12T05:07:13;103812.50;;;6.87;100.00
43745;BME280;29359;53.048;8.732;2023-02-12T05:09:18;103811.63;;;6.87;100.00
43745;BME280;29359;53.048;8.732;2023-02-12T05:11:19;103812.41;;;6.84;100.00
43745;BME280;29359;53.048;8.732;2023-02-12T05:13:21;103811.50;;;6.84;100.00
43745;BME280;29359;53.048;8.732;2023-02-12T05:15:22;103806.25;;;6.84;100.00
43745;BME280;29359;53.048;8.732;2023-02-12T05:17:24;103814.25;;;6.87;100.00
43745;BME280;29359;53.048;8.732;2023-02-12T05:19:26;103816.81;;;6.85;100.00
43745;BME280;29359;53.048;8.732;2023-02-12T05:21:27;103814.13;;;6.84;100.00
43745;BME280;29359;53.048;8.732;2023-02-12T05:23:30;103813.34;;;6.86;100.00
43745;BME280;29359;53.048;8.732;2023-02-12T05:25:32;103805.38;;;6.83;100.00
43745;BME280;29359;53.048;8.732;2023-02-12T05:27:34;103812.31;;;6.81;100.00
43745;BME280;29359;53.048;8.732;2023-02-12T05:29:36;103812.25;;;6.80;100.00
43745;BME280;29359;53.048;8.732;2023-02-12T05:31:37;103818.34;;;6.79;100.00
43745;BME280;29359;53.048;8.732;2023-02-12T05:33:43;103815.81;;;6.82;100.00
43745;BME280;29359;53.048;8.732;2023-02-12T05:35:45;103814.03;;;6.81;100.00
43745;BME280;29359;53.048;8.732;2023-02-12T05:37:46;103813.19;;;6.82;100.00
43745;BME280;29359;53.048;8.732;2023-02-12T05:39:49;103819.34;;;6.82;100.00
43745;BME280;29359;53.048;8.732;2023-02-12T05:41:50;103826.38;;;6.83;100.00
43745;BME280;29359;53.048;8.732;2023-02-12T05:43:52;103820.22;;;6.83;100.00
43745;BME280;29359;53.048;8.732;2023-02-12T05:45:54;103818.50;;;6.83;100.00
43745;BME280;29359;53.048;8.732;2023-02-12T05:47:58;103828.16;;;6.84;100.00
43745;BME280;29359;53.048;8.732;2023-02-12T05:50:00;103822.03;;;6.84;100.00
43745;BME280;29359;53.048;8.732;2023-02-12T05:52:02;103822.06;;;6.85;100.00
43745;BME280;29359;53.048;8.732;2023-02-12T05:54:05;103823.00;;;6.87;100.00
43745;BME280;29359;53.048;8.732;2023-02-12T05:58:08;103833.38;;;6.83;100.00
43745;BME280;29359;53.048;8.732;2023-02-12T06:00:10;103831.56;;;6.82;100.00
43745;BME280;29359;53.048;8.732;2023-02-12T06:02:12;103834.09;;;6.79;100.00
43745;BME280;29359;53.048;8.732;2023-02-12T06:04:16;103833.09;;;6.75;100.00
43745;BME280;29359;53.048;8.732;2023-02-12T06:06:18;103840.25;;;6.79;100.00
43745;BME280;29359;53.048;8.732;2023-02-12T06:08:19;103841.97;;;6.79;100.00
43745;BME280;29359;53.048;8.732;2023-02-12T06:10:21;103843.69;;;6.78;100.00
43745;BME280;29359;53.048;8.732;2023-02-12T06:12:22;103847.22;;;6.79;100.00
43745;BME280;29359;53.048;8.732;2023-02-12T06:14:24;103845.44;;;6.78;100.00
43745;BME280;29359;53.048;8.732;2023-02-12T06:16:27;103842.75;;;6.76;100.00
43745;BME280;29359;53.048;8.732;2023-02-12T06:18:29;103841.88;;;6.76;100.00
43745;BME280;29359;53.048;8.732;2023-02-12T06:20:30;103848.78;;;6.74;100.00
43745;BME280;29359;53.048;8.732;2023-02-12T06:22:32;103850.59;;;6.75;100.00
43745;BME280;29359;53.048;8.732;2023-02-12T06:24:34;103846.16;;;6.74;100.00
43745;BME280;29359;53.048;8.732;2023-02-12T06:26:37;103848.91;;;6.77;100.00
43745;BME280;29359;53.048;8.732;2023-02-12T06:28:38;103848.00;;;6.76;100.00
43745;BME280;29359;53.048;8.732;2023-02-12T06:30:40;103847.91;;;6.73;100.00
43745;BME280;29359;53.048;8.732;2023-02-12T06:32:42;103851.41;;;6.74;100.00
43745;BME280;29359;53.048;8.732;2023-02-12T06:34:43;103849.59;;;6.71;100.00
43745;BME280;29359;53.048;8.732;2023-02-12T06:36:46;103855.72;;;6.72;100.00
43745;BME280;29359;53.048;8.732;2023-02-12T06:38:48;103860.09;;;6.71;100.00
43745;BME280;29359;53.048;8.732;2023-02-12T06:40:50;103860.13;;;6.73;100.00
43745;BME280;29359;53.048;8.732;2023-02-12T06:42:51;103860.09;;;6.71;100.00
43745;BME280;29359;53.048;8.732;2023-02-12T06:44:53;103860.97;;;6.72;100.00
43745;BME280;29359;53.048;8.732;2023-02-12T06:46:54;103867.13;;;6.72;100.00
43745;BME280;29359;53.048;8.732;2023-02-12T06:48:57;103866.16;;;6.70;100.00
43745;BME280;29359;53.048;8.732;2023-02-12T06:51:07;103866.16;;;6.70;100.00
43745;BME280;29359;53.048;8.732;2023-02-12T06:53:09;103874.88;;;6.69;100.00
43745;BME280;29359;53.048;8.732;2023-02-12T06:55:10;103876.63;;;6.69;100.00
43745;BME280;29359;53.048;8.732;2023-02-12T06:57:12;103874.00;;;6.69;100.00
43745;BME280;29359;53.048;8.732;2023-02-12T06:59:15;103869.69;;;6.71;100.00
43745;BME280;29359;53.048;8.732;2023-02-12T07:01:19;103873.25;;;6.73;100.00
43745;BME280;29359;53.048;8.732;2023-02-12T07:03:21;103882.88;;;6.72;100.00
43745;BME280;29359;53.048;8.732;2023-02-12T07:05:23;103880.31;;;6.74;100.00
43745;BME280;29359;53.048;8.732;2023-02-12T07:07:25;103881.13;;;6.73;100.00
43745;BME280;29359;53.048;8.732;2023-02-12T07:09:26;103882.09;;;6.75;100.00
43745;BME280;29359;53.048;8.732;2023-02-12T07:11:30;103888.22;;;6.75;100.00
43745;BME280;29359;53.048;8.732;2023-02-12T07:13:32;103885.56;;;6.74;100.00
43745;BME280;29359;53.048;8.732;2023-02-12T07:15:38;103884.59;;;6.72;100.00
43745;BME280;29359;53.048;8.732;2023-02-12T07:17:40;103897.78;;;6.73;100.00
43745;BME280;29359;53.048;8.732;2023-02-12T07:19:42;103899.53;;;6.73;100.00
43745;BME280;29359;53.048;8.732;2023-02-12T07:21:43;103897.72;;;6.72;100.00
43745;BME280;29359;53.048;8.732;2023-02-12T07:23:49;103897.78;;;6.73;100.00
43745;BME280;29359;53.048;8.732;2023-02-12T07:26:00;103896.91;;;6.73;100.00
43745;BME280;29359;53.048;8.732;2023-02-12T07:28:02;103900.34;;;6.72;100.00
43745;BME280;29359;53.048;8.732;2023-02-12T07:30:04;103903.09;;;6.75;100.00
43745;BME280;29359;53.048;8.732;2023-02-12T07:32:06;103903.09;;;6.75;100.00
43745;BME280;29359;53.048;8.732;2023-02-12T07:34:09;103899.56;;;6.74;100.00
43745;BME280;29359;53.048;8.732;2023-02-12T07:36:13;103904.00;;;6.75;100.00
43745;BME280;29359;53.048;8.732;2023-02-12T07:38:15;103918.84;;;6.75;100.00
43745;BME280;29359;53.048;8.732;2023-02-12T07:40:16;103917.97;;;6.74;100.00
43745;BME280;29359;53.048;8.732;2023-02-12T07:42:18;103915.34;;;6.74;100.00
43745;BME280;29359;53.048;8.732;2023-02-12T07:44:19;103921.47;;;6.75;100.00
43745;BME280;29359;53.048;8.732;2023-02-12T07:46:24;103910.97;;;6.75;100.00
43745;BME280;29359;53.048;8.732;2023-02-12T07:48:29;103919.69;;;6.74;100.00
43745;BME280;29359;53.048;8.732;2023-02-12T07:50:31;103920.63;;;6.76;100.00
43745;BME280;29359;53.048;8.732;2023-02-12T07:52:32;103928.56;;;6.77;100.00
43745;BME280;29359;53.048;8.732;2023-02-12T07:54:34;103932.94;;;6.77;100.00
43745;BME280;29359;53.048;8.732;2023-02-12T07:56:37;103925.06;;;6.77;100.00
43745;BME280;29359;53.048;8.732;2023-02-12T07:58:41;103931.19;;;6.77;100.00
43745;BME280;29359;53.048;8.732;2023-02-12T08:00:42;103932.16;;;6.79;100.00
43745;BME280;29359;53.048;8.732;2023-02-12T08:02:50;103930.41;;;6.80;100.00
43745;BME280;29359;53.048;8.732;2023-02-12T08:04:56;103938.41;;;6.83;100.00
43745;BME280;29359;53.048;8.732;2023-02-12T08:06:57;103940.19;;;6.84;100.00
43745;BME280;29359;53.048;8.732;2023-02-12T08:09:00;103936.72;;;6.85;100.00
43745;BME280;29359;53.048;8.732;2023-02-12T08:11:06;103931.53;;;6.86;100.00
43745;BME280;29359;53.048;8.732;2023-02-12T08:13:08;103935.09;;;6.88;100.00
43745;BME280;29359;53.048;8.732;2023-02-12T08:15:10;103940.41;;;6.90;100.00
43745;BME280;29359;53.048;8.732;2023-02-12T08:17:11;103943.03;;;6.90;100.00
43745;BME280;29359;53.048;8.732;2023-02-12T08:19:13;103944.66;;;6.86;100.00
43745;BME280;29359;53.048;8.732;2023-02-12T08:21:25;103948.19;;;6.87;100.00
43745;BME280;29359;53.048;8.732;2023-02-12T08:23:27;103946.56;;;6.90;100.00
43745;BME280;29359;53.048;8.732;2023-02-12T08:25:28;103954.50;;;6.92;100.00
43745;BME280;29359;53.048;8.732;2023-02-12T08:27:30;103959.00;;;6.95;100.00
43745;BME280;29359;53.048;8.732;2023-02-12T08:29:31;103952.00;;;6.95;100.00
43745;BME280;29359;53.048;8.732;2023-02-12T08:31:38;103958.09;;;6.94;100.00
43745;BME280;29359;53.048;8.732;2023-02-12T08:33:40;103961.63;;;6.95;100.00
43745;BME280;29359;53.048;8.732;2023-02-12T08:35:41;103962.63;;;6.98;100.00
43745;BME280;29359;53.048;8.732;2023-02-12T08:37:43;103963.56;;;7.00;100.00
43745;BME280;29359;53.048;8.732;2023-02-12T08:39:44;103954.84;;;7.01;100.00
43745;BME280;29359;53.048;8.732;2023-02-12T08:41:46;103961.00;;;7.02;100.00
43745;BME280;29359;53.048;8.732;2023-02-12T08:43:48;103957.50;;;7.01;100.00
43745;BME280;29359;53.048;8.732;2023-02-12T08:45:50;103950.59;;;7.05;100.00
43745;BME280;29359;53.048;8.732;2023-02-12T08:47:52;103959.44;;;7.07;100.00
43745;BME280;29359;53.048;8.732;2023-02-12T08:49:53;103957.81;;;7.10;100.00
43745;BME280;29359;53.048;8.732;2023-02-12T08:51:56;103954.28;;;7.10;100.00
43745;BME280;29359;53.048;8.732;2023-02-12T08:54:00;103953.41;;;7.09;100.00
43745;BME280;29359;53.048;8.732;2023-02-12T08:56:02;103963.84;;;7.08;100.00
43745;BME280;29359;53.048;8.732;2023-02-12T08:58:03;103963.84;;;7.08;100.00
43745;BME280;29359;53.048;8.732;2023-02-12T09:00:06;103963.19;;;7.13;100.00
43745;BME280;29359;53.048;8.732;2023-02-12T09:02:09;103956.13;;;7.12;100.00
43745;BME280;29359;53.048;8.732;2023-02-12T09:04:14;103966.75;;;7.15;100.00
43745;BME280;29359;53.048;8.732;2023-02-12T09:06:20;103964.13;;;7.15;100.00
43745;BME280;29359;53.048;8.732;2023-02-12T09:08:22;103970.28;;;7.16;100.00
43745;BME280;29359;53.048;8.732;2023-02-12T09:10:23;103972.16;;;7.20;100.00
43745;BME280;29359;53.048;8.732;2023-02-12T09:12:25;103975.81;;;7.23;100.00
43745;BME280;29359;53.048;8.732;2023-02-12T09:14:26;103976.75;;;7.25;100.00
43745;BME280;29359;53.048;8.732;2023-02-12T09:16:31;103971.50;;;7.25;100.00
43745;BME280;29359;53.048;8.732;2023-02-12T09:18:33;103975.06;;;7.28;100.00
43745;BME280;29359;53.048;8.732;2023-02-12T09:20:37;103977.75;;;7.29;100.00
43745;BME280;29359;53.048;8.732;2023-02-12T09:22:42;103982.22;;;7.32;100.00
43745;BME280;29359;53.048;8.732;2023-02-12T09:24:44;103984.91;;;7.33;100.00
43745;BME280;29359;53.048;8.732;2023-02-12T09:26:45;103986.63;;;7.33;100.00
43745;BME280;29359;53.048;8.732;2023-02-12T09:28:48;103988.38;;;7.32;100.00
43745;BME280;29359;53.048;8.732;2023-02-12T09:30:50;103986.59;;;7.31;100.00
43745;BME280;29359;53.048;8.732;2023-02-12T09:32:51;103983.16;;;7.34;100.00
43745;BME280;29359;53.048;8.732;2023-02-12T09:34:53;103995.63;;;7.38;100.00
43745;BME280;29359;53.048;8.732;2023-02-12T09:36:54;103985.25;;;7.42;100.00
43745;BME280;29359;53.048;8.732;2023-02-12T09:38:56;103992.34;;;7.45;100.00
43745;BME280;29359;53.048;8.732;2023-02-12T09:45:56;103993.25;;;7.45;100.00
43745;BME280;29359;53.048;8.732;2023-02-12T09:48:09;104001.34;;;7.51;100.00
43745;BME280;29359;53.048;8.732;2023-02-12T09:52:30;104000.72;;;7.59;100.00
43745;BME280;29359;53.048;8.732;2023-02-12T09:54:38;104007.72;;;7.58;100.00
43745;BME280;29359;53.048;8.732;2023-02-12T09:56:43;104008.59;;;7.59;100.00
43745;BME280;29359;53.048;8.732;2023-02-12T10:00:49;104000.88;;;7.63;100.00
43745;BME280;29359;53.048;8.732;2023-02-12T10:02:52;104007.88;;;7.63;100.00
43745;BME280;29359;53.048;8.732;2023-02-12T10:04:54;104008.75;;;7.63;100.00
43745;BME280;29359;53.048;8.732;2023-02-12T10:07:18;104008.13;;;7.70;100.00
43745;BME280;29359;53.048;8.732;2023-02-12T10:09:32;104007.44;;;7.76;100.00
43745;BME280;29359;53.048;8.732;2023-02-12T10:11:46;104005.81;;;7.79;100.00
43745;BME280;29359;53.048;8.732;2023-02-12T10:20:49;104010.25;;;7.80;100.00
43745;BME280;29359;53.048;8.732;2023-02-12T10:27:20;104007.63;;;7.80;100.00
43745;BME280;29359;53.048;8.732;2023-02-12T10:29:28;104007.72;;;7.83;100.00
43745;BME280;29359;53.048;8.732;2023-02-12T10:31:36;104010.38;;;7.83;100.00
43745;BME280;29359;53.048;8.732;2023-02-12T10:33:43;104007.00;;;7.87;100.00
43745;BME280;29359;53.048;8.732;2023-02-12T10:35:55;104017.56;;;7.89;100.00
43745;BME280;29359;53.048;8.732;2023-02-12T10:38:04;104013.16;;;7.88;100.00
43745;BME280;29359;53.048;8.732;2023-02-12T10:40:26;104009.81;;;7.94;100.00
43745;BME280;29359;53.048;8.732;2023-02-12T10:42:37;103999.56;;;8.01;100.00
43745;BME280;29359;53.048;8.732;2023-02-12T10:44:40;104005.91;;;8.08;100.00
43745;BME280;29359;53.048;8.732;2023-02-12T10:46:41;104001.59;;;8.10;100.00
43745;BME280;29359;53.048;8.732;2023-02-12T10:48:45;104008.59;;;8.09;100.00
43745;BME280;29359;53.048;8.732;2023-02-12T10:53:15;104005.91;;;8.08;100.00
43745;BME280;29359;53.048;8.732;2023-02-12T10:55:33;104000.75;;;8.11;100.00
43745;BME280;29359;53.048;8.732;2023-02-12T10:57:37;104010.31;;;8.09;100.00
43745;BME280;29359;53.048;8.732;2023-02-12T10:59:41;104005.91;;;8.08;100.00
43745;BME280;29359;53.048;8.732;2023-02-12T11:01:46;104006.75;;;8.07;100.00
43745;BME280;29359;53.048;8.732;2023-02-12T11:03:47;103999.75;;;8.07;100.00
43745;BME280;29359;53.048;8.732;2023-02-12T11:05:49;104007.75;;;8.10;100.00
43745;BME280;29359;53.048;8.732;2023-02-12T11:07:51;104003.28;;;8.08;100.00
43745;BME280;29359;53.048;8.732;2023-02-12T11:09:55;104004.91;;;8.04;100.00
43745;BME280;29359;53.048;8.732;2023-02-12T11:11:57;103998.69;;;8.02;100.00
43745;BME280;29359;53.048;8.732;2023-02-12T11:14:19;103997.16;;;8.09;100.00
43745;BME280;29359;53.048;8.732;2023-02-12T11:18:30;103999.06;;;8.13;100.00
43745;BME280;29359;53.048;8.732;2023-02-12T11:20:38;103999.09;;;8.14;100.00
43745;BME280;29359;53.048;8.732;2023-02-12T11:22:48;104000.03;;;8.16;100.00
43745;BME280;29359;53.048;8.732;2023-02-12T11:24:59;104002.72;;;8.18;100.00
43745;BME280;29359;53.048;8.732;2023-02-12T11:29:19;103987.69;;;8.14;100.00
43745;BME280;29359;53.048;8.732;2023-02-12T11:31:32;103991.94;;;8.10;100.00
43745;BME280;29359;53.048;8.732;2023-02-12T11:33:36;103988.63;;;8.16;100.00
43745;BME280;29359;53.048;8.732;2023-02-12T11:35:48;103992.19;;;8.18;100.00
43745;BME280;29359;53.048;8.732;2023-02-12T11:37:53;103989.50;;;8.16;100.00
43745;BME280;29359;53.048;8.732;2023-02-12T11:39:56;103990.41;;;8.17;100.00
43745;BME280;29359;53.048;8.732;2023-02-12T11:44:17;103987.88;;;8.20;100.00
43745;BME280;29359;53.048;8.732;2023-02-12T11:46:25;103980.81;;;8.19;100.00
43745;BME280;29359;53.048;8.732;2023-02-12T11:48:31;103972.13;;;8.22;100.00
43745;BME280;29359;53.048;8.732;2023-02-12T11:50:36;103974.72;;;8.20;100.00
43745;BME280;29359;53.048;8.732;2023-02-12T11:52:39;103973.72;;;8.16;100.00
43745;BME280;29359;53.048;8.732;2023-02-12T11:54:45;103965.94;;;8.19;100.00
43745;BME280;29359;53.048;8.732;2023-02-12T11:56:48;103973.03;;;8.22;100.00
43745;BME280;29359;53.048;8.732;2023-02-12T11:58:50;103967.97;;;8.28;100.00